sensor_id;sensor_type;location;lat;lon;timestamp;P1;durP1;ratioP1;P2;durP2;ratioP2
42124;SDS011;27787;44.594;11.046;2023-02-28T00:02:39;14.52;;;7.15;;
42124;SDS011;27787;44.594;11.046;2023-02-28T00:05:24;15.90;;;6.30;;
42124;SDS011;27787;44.594;11.046;2023-02-28T00:10:54;12.55;;;6.35;;
42124;SDS011;27787;44.594;11.046;2023-02-28T00:13:41;19.83;;;6.00;;
42124;SDS011;27787;44.594;11.046;2023-02-28T00:16:31;11.40;;;6.50;;
42124;SDS011;27787;44.594;11.046;2023-02-28T00:19:15;13.02;;;5.68;;
42124;SDS011;27787;44.594;11.046;2023-02-28T00:21:59;16.75;;;6.50;;
42124;SDS011;27787;44.594;11.046;2023-02-28T00:24:44;15.50;;;6.25;;
42124;SDS011;27787;44.594;11.046;2023-02-28T00:27:28;12.70;;;6.03;;
42124;SDS011;27787;44.594;11.046;2023-02-28T00:30:17;13.75;;;7.15;;
42124;SDS011;27787;44.594;11.046;2023-02-28T00:33:03;15.85;;;6.63;;
42124;SDS011;27787;44.594;11.046;2023-02-28T00:35:47;13.50;;;5.28;;
42124;SDS011;27787;44.594;11.046;2023-02-28T00:38:32;18.27;;;6.73;;
42124;SDS011;27787;44.594;11.046;2023-02-28T00:41:18;16.45;;;7.10;;
42124;SDS011;27787;44.594;11.046;2023-02-28T00:44:02;13.43;;;6.28;;
42124;SDS011;27787;44.594;11.046;2023-02-28T00:46:49;12.43;;;5.97;;
42124;SDS011;27787;44.594;11.046;2023-02-28T00:49:33;13.52;;;6.22;;
42124;SDS011;27787;44.594;11.046;2023-02-28T00:52:17;12.15;;;6.50;;
42124;SDS011;27787;44.594;11.046;2023-02-28T00:55:01;13.32;;;6.13;;
42124;SDS011;27787;44.594;11.046;2023-02-28T00:57:46;14.27;;;6.70;;
42124;SDS011;27787;44.594;11.046;2023-02-28T01:00:30;12.85;;;5.45;;
42124;SDS011;27787;44.594;11.046;2023-02-28T01:03:14;17.77;;;6.47;;
42124;SDS011;27787;44.594;11.046;2023-02-28T01:06:02;15.63;;;6.25;;
42124;SDS011;27787;44.594;11.046;2023-02-28T01:08:46;15.00;;;6.35;;
42124;SDS011;27787;44.594;11.046;2023-02-28T01:11:30;13.90;;;6.20;;
42124;SDS011;27787;44.594;11.046;2023-02-28T01:14:16;12.23;;;5.83;;
42124;SDS011;27787;44.594;11.046;2023-02-28T01:17:03;16.52;;;5.78;;
42124;SDS011;27787;44.594;11.046;2023-02-28T01:22:34;12.90;;;5.70;;
42124;SDS011;27787;44.594;11.046;2023-02-28T01:25:18;9.00;;;5.25;;
42124;SDS011;27787;44.594;11.046;2023-02-28T01:28:02;10.85;;;6.07;;
42124;SDS011;27787;44.594;11.046;2023-02-28T01:30:47;12.35;;;6.38;;
42124;SDS011;27787;44.594;11.046;2023-02-28T01:33:34;12.43;;;5.93;;
42124;SDS011;27787;44.594;11.046;2023-02-28T01:36:21;11.95;;;5.65;;
42124;SDS011;27787;44.594;11.046;2023-02-28T01:39:06;20.08;;;6.80;;
42124;SDS011;27787;44.594;11.046;2023-02-28T01:41:51;16.50;;;5.95;;
42124;SDS011;27787;44.594;11.046;2023-02-28T01:47:42;14.15;;;5.95;;
42124;SDS011;27787;44.594;11.046;2023-02-28T01:50:28;9.25;;;4.70;;
42124;SDS011;27787;44.594;11.046;2023-02-28T01:53:19;16.65;;;5.30;;
42124;SDS011;27787;44.594;11.046;2023-02-28T01:56:10;10.45;;;4.95;;
42124;SDS011;27787;44.594;11.046;2023-02-28T01:59:06;14.25;;;6.50;;
42124;SDS011;27787;44.594;11.046;2023-02-28T02:01:51;10.70;;;5.47;;
42124;SDS011;27787;44.594;11.046;2023-02-28T02:07:24;9.52;;;5.13;;
42124;SDS011;27787;44.594;11.046;2023-02-28T02:10:14;11.10;;;5.60;;
42124;SDS011;27787;44.594;11.046;2023-02-28T02:13:23;17.63;;;5.82;;
42124;SDS011;27787;44.594;11.046;2023-02-28T02:32:12;9.77;;;4.80;;
42124;SDS011;27787;44.594;11.046;2023-02-28T02:35:04;11.77;;;5.25;;
42124;SDS011;27787;44.594;11.046;2023-02-28T02:38:24;13.48;;;5.43;;
42124;SDS011;27787;44.594;11.046;2023-02-28T02:41:51;10.98;;;5.65;;
42124;SDS011;27787;44.594;11.046;2023-02-28T02:44:39;13.13;;;5.30;;
42124;SDS011;27787;44.594;11.046;2023-02-28T02:47:29;11.35;;;5.30;;
42124;SDS011;27787;44.594;11.046;2023-02-28T02:50:17;15.90;;;5.78;;
42124;SDS011;27787;44.594;11.046;2023-02-28T02:53:07;14.13;;;5.72;;
42124;SDS011;27787;44.594;11.046;2023-02-28T02:55:55;12.32;;;5.82;;
42124;SDS011;27787;44.594;11.046;2023-02-28T02:58:43;14.27;;;5.65;;
42124;SDS011;27787;44.594;11.046;2023-02-28T03:01:29;9.18;;;5.30;;
42124;SDS011;27787;44.594;11.046;2023-02-28T03:04:18;13.95;;;5.35;;
42124;SDS011;27787;44.594;11.046;2023-02-28T03:07:04;10.15;;;4.50;;
42124;SDS011;27787;44.594;11.046;2023-02-28T03:09:53;10.20;;;5.40;;
42124;SDS011;27787;44.594;11.046;2023-02-28T03:12:46;11.13;;;5.50;;
42124;SDS011;27787;44.594;11.046;2023-02-28T03:25:08;11.55;;;5.22;;
42124;SDS011;27787;44.594;11.046;2023-02-28T03:33:31;8.10;;;4.88;;
42124;SDS011;27787;44.594;11.046;2023-02-28T03:36:20;8.93;;;5.55;;
42124;SDS011;27787;44.594;11.046;2023-02-28T03:39:12;12.55;;;5.22;;
42124;SDS011;27787;44.594;11.046;2023-02-28T03:42:02;11.38;;;6.40;;
42124;SDS011;27787;44.594;11.046;2023-02-28T03:47:41;12.25;;;5.50;;
42124;SDS011;27787;44.594;11.046;2023-02-28T03:50:41;14.20;;;5.72;;
42124;SDS011;27787;44.594;11.046;2023-02-28T03:53:39;13.88;;;5.40;;
42124;SDS011;27787;44.594;11.046;2023-02-28T03:56:32;10.55;;;5.45;;
42124;SDS011;27787;44.594;11.046;2023-02-28T04:02:30;10.38;;;5.15;;
42124;SDS011;27787;44.594;11.046;2023-02-28T04:05:14;9.45;;;5.13;;
42124;SDS011;27787;44.594;11.046;2023-02-28T04:08:05;10.43;;;5.30;;
42124;SDS011;27787;44.594;11.046;2023-02-28T04:10:54;9.82;;;5.50;;
42124;SDS011;27787;44.594;11.046;2023-02-28T04:13:42;11.57;;;5.70;;
42124;SDS011;27787;44.594;11.046;2023-02-28T04:16:26;12.50;;;5.47;;
42124;SDS011;27787;44.594;11.046;2023-02-28T04:19:11;11.90;;;5.22;;
42124;SDS011;27787;44.594;11.046;2023-02-28T04:21:56;12.93;;;5.75;;
42124;SDS011;27787;44.594;11.046;2023-02-28T04:24:40;8.45;;;5.47;;
42124;SDS011;27787;44.594;11.046;2023-02-28T04:27:25;10.10;;;5.55;;
42124;SDS011;27787;44.594;11.046;2023-02-28T04:30:09;11.98;;;5.40;;
42124;SDS011;27787;44.594;11.046;2023-02-28T04:32:54;14.35;;;6.03;;
42124;SDS011;27787;44.594;11.046;2023-02-28T04:35:38;10.80;;;5.93;;
42124;SDS011;27787;44.594;11.046;2023-02-28T04:38:22;8.82;;;5.22;;
42124;SDS011;27787;44.594;11.046;2023-02-28T04:41:06;13.35;;;5.95;;
42124;SDS011;27787;44.594;11.046;2023-02-28T04:43:51;11.38;;;5.53;;
42124;SDS011;27787;44.594;11.046;2023-02-28T04:49:20;11.98;;;5.40;;
42124;SDS011;27787;44.594;11.046;2023-02-28T04:52:04;11.65;;;5.72;;
42124;SDS011;27787;44.594;11.046;2023-02-28T04:54:48;13.77;;;6.07;;
42124;SDS011;27787;44.594;11.046;2023-02-28T04:57:33;12.57;;;5.78;;
42124;SDS011;27787;44.594;11.046;2023-02-28T05:00:17;11.48;;;5.65;;
42124;SDS011;27787;44.594;11.046;2023-02-28T05:03:01;14.15;;;5.60;;
42124;SDS011;27787;44.594;11.046;2023-02-28T05:05:46;12.40;;;6.38;;
42124;SDS011;27787;44.594;11.046;2023-02-28T05:08:30;10.32;;;6.13;;
42124;SDS011;27787;44.594;11.046;2023-02-28T05:14:11;15.52;;;7.43;;
42124;SDS011;27787;44.594;11.046;2023-02-28T05:16:57;17.23;;;6.38;;
42124;SDS011;27787;44.594;11.046;2023-02-28T05:19:41;12.50;;;6.00;;
42124;SDS011;27787;44.594;11.046;2023-02-28T05:22:25;11.00;;;6.63;;
42124;SDS011;27787;44.594;11.046;2023-02-28T05:25:16;15.43;;;6.82;;
42124;SDS011;27787;44.594;11.046;2023-02-28T05:28:02;17.38;;;6.78;;
42124;SDS011;27787;44.594;11.046;2023-02-28T05:30:47;13.82;;;6.93;;
42124;SDS011;27787;44.594;11.046;2023-02-28T05:33:31;11.13;;;6.57;;
42124;SDS011;27787;44.594;11.046;2023-02-28T05:36:15;12.27;;;6.68;;
42124;SDS011;27787;44.594;11.046;2023-02-28T05:38:59;10.63;;;6.43;;
42124;SDS011;27787;44.594;11.046;2023-02-28T05:41:44;12.10;;;5.93;;
42124;SDS011;27787;44.594;11.046;2023-02-28T05:44:29;14.43;;;6.72;;
42124;SDS011;27787;44.594;11.046;2023-02-28T05:47:13;11.63;;;6.68;;
42124;SDS011;27787;44.594;11.046;2023-02-28T05:49:59;12.75;;;6.10;;
42124;SDS011;27787;44.594;11.046;2023-02-28T05:52:44;19.13;;;6.50;;
42124;SDS011;27787;44.594;11.046;2023-02-28T05:55:28;11.68;;;6.50;;
42124;SDS011;27787;44.594;11.046;2023-02-28T05:58:11;12.38;;;6.50;;
42124;SDS011;27787;44.594;11.046;2023-02-28T06:00:59;12.30;;;5.93;;
42124;SDS011;27787;44.594;11.046;2023-02-28T06:03:44;13.60;;;6.55;;
42124;SDS011;27787;44.594;11.046;2023-02-28T06:06:28;12.00;;;6.57;;
42124;SDS011;27787;44.594;11.046;2023-02-28T06:09:17;14.63;;;6.47;;
42124;SDS011;27787;44.594;11.046;2023-02-28T06:12:03;13.82;;;6.53;;
42124;SDS011;27787;44.594;11.046;2023-02-28T06:14:49;13.13;;;6.55;;
42124;SDS011;27787;44.594;11.046;2023-02-28T06:17:33;15.02;;;7.18;;
42124;SDS011;27787;44.594;11.046;2023-02-28T06:20:17;10.85;;;6.05;;
42124;SDS011;27787;44.594;11.046;2023-02-28T06:23:02;11.25;;;6.63;;
42124;SDS011;27787;44.594;11.046;2023-02-28T06:25:46;12.10;;;6.32;;
42124;SDS011;27787;44.594;11.046;2023-02-28T06:28:31;12.52;;;6.68;;
42124;SDS011;27787;44.594;11.046;2023-02-28T06:31:16;18.48;;;6.55;;
42124;SDS011;27787;44.594;11.046;2023-02-28T06:36:46;16.38;;;6.45;;
42124;SDS011;27787;44.594;11.046;2023-02-28T06:39:30;19.92;;;8.52;;
42124;SDS011;27787;44.594;11.046;2023-02-28T06:42:15;15.82;;;7.15;;
42124;SDS011;27787;44.594;11.046;2023-02-28T06:45:00;15.93;;;7.95;;
42124;SDS011;27787;44.594;11.046;2023-02-28T06:47:46;14.63;;;7.82;;
42124;SDS011;27787;44.594;11.046;2023-02-28T06:50:36;23.85;;;10.38;;
42124;SDS011;27787;44.594;11.046;2023-02-28T06:53:20;19.97;;;8.23;;
42124;SDS011;27787;44.594;11.046;2023-02-28T06:56:05;18.17;;;9.63;;
42124;SDS011;27787;44.594;11.046;2023-02-28T06:58:52;14.90;;;8.15;;
42124;SDS011;27787;44.594;11.046;2023-02-28T07:01:40;16.25;;;8.52;;
42124;SDS011;27787;44.594;11.046;2023-02-28T07:04:24;20.88;;;7.95;;
42124;SDS011;27787;44.594;11.046;2023-02-28T07:07:08;14.20;;;6.65;;
42124;SDS011;27787;44.594;11.046;2023-02-28T07:09:52;16.92;;;7.55;;
42124;SDS011;27787;44.594;11.046;2023-02-28T07:12:36;19.08;;;7.38;;
42124;SDS011;27787;44.594;11.046;2023-02-28T07:15:20;15.70;;;6.70;;
42124;SDS011;27787;44.594;11.046;2023-02-28T07:18:05;14.77;;;6.72;;
42124;SDS011;27787;44.594;11.046;2023-02-28T07:20:51;11.27;;;6.40;;
42124;SDS011;27787;44.594;11.046;2023-02-28T07:23:35;14.63;;;6.50;;
42124;SDS011;27787;44.594;11.046;2023-02-28T07:26:25;13.45;;;6.40;;
42124;SDS011;27787;44.594;11.046;2023-02-28T07:29:09;15.73;;;6.78;;
42124;SDS011;27787;44.594;11.046;2023-02-28T07:31:54;12.65;;;6.80;;
42124;SDS011;27787;44.594;11.046;2023-02-28T07:34:39;16.92;;;8.10;;
42124;SDS011;27787;44.594;11.046;2023-02-28T07:37:24;13.35;;;6.57;;
42124;SDS011;27787;44.594;11.046;2023-02-28T07:40:09;13.80;;;7.03;;
42124;SDS011;27787;44.594;11.046;2023-02-28T07:42:58;16.33;;;7.15;;
42124;SDS011;27787;44.594;11.046;2023-02-28T07:45:42;13.65;;;6.53;;
42124;SDS011;27787;44.594;11.046;2023-02-28T07:48:26;12.40;;;6.53;;
42124;SDS011;27787;44.594;11.046;2023-02-28T07:51:10;12.93;;;6.32;;
42124;SDS011;27787;44.594;11.046;2023-02-28T07:53:55;13.38;;;6.65;;
42124;SDS011;27787;44.594;11.046;2023-02-28T07:56:39;19.02;;;7.40;;
42124;SDS011;27787;44.594;11.046;2023-02-28T07:59:23;17.30;;;7.70;;
42124;SDS011;27787;44.594;11.046;2023-02-28T08:02:12;16.08;;;6.88;;
42124;SDS011;27787;44.594;11.046;2023-02-28T08:04:57;12.48;;;6.32;;
42124;SDS011;27787;44.594;11.046;2023-02-28T08:07:41;11.63;;;6.15;;
42124;SDS011;27787;44.594;11.046;2023-02-28T08:10:25;13.20;;;6.25;;
42124;SDS011;27787;44.594;11.046;2023-02-28T08:13:11;10.38;;;6.40;;
42124;SDS011;27787;44.594;11.046;2023-02-28T08:15:55;15.32;;;6.95;;
42124;SDS011;27787;44.594;11.046;2023-02-28T08:18:40;12.87;;;7.10;;
42124;SDS011;27787;44.594;11.046;2023-02-28T08:21:25;14.98;;;6.63;;
42124;SDS011;27787;44.594;11.046;2023-02-28T08:24:09;17.13;;;6.45;;
42124;SDS011;27787;44.594;11.046;2023-02-28T08:26:53;14.85;;;6.18;;
42124;SDS011;27787;44.594;11.046;2023-02-28T08:29:37;13.60;;;6.80;;
42124;SDS011;27787;44.594;11.046;2023-02-28T08:32:24;11.43;;;6.18;;
42124;SDS011;27787;44.594;11.046;2023-02-28T08:35:08;12.57;;;6.38;;
42124;SDS011;27787;44.594;11.046;2023-02-28T08:37:55;13.90;;;6.95;;
42124;SDS011;27787;44.594;11.046;2023-02-28T08:40:40;16.42;;;6.40;;
42124;SDS011;27787;44.594;11.046;2023-02-28T08:43:24;10.57;;;6.13;;
42124;SDS011;27787;44.594;11.046;2023-02-28T08:46:11;13.57;;;7.00;;
42124;SDS011;27787;44.594;11.046;2023-02-28T08:48:57;10.95;;;6.22;;
42124;SDS011;27787;44.594;11.046;2023-02-28T08:51:43;11.52;;;6.10;;
42124;SDS011;27787;44.594;11.046;2023-02-28T08:54:28;17.33;;;6.38;;
42124;SDS011;27787;44.594;11.046;2023-02-28T08:57:16;14.80;;;7.60;;
42124;SDS011;27787;44.594;11.046;2023-02-28T08:59:59;13.32;;;6.50;;
42124;SDS011;27787;44.594;11.046;2023-02-28T09:02:45;12.90;;;6.60;;
42124;SDS011;27787;44.594;11.046;2023-02-28T09:05:29;15.25;;;6.85;;
42124;SDS011;27787;44.594;11.046;2023-02-28T09:08:13;12.55;;;6.57;;
42124;SDS011;27787;44.594;11.046;2023-02-28T09:10:57;13.80;;;6.63;;
42124;SDS011;27787;44.594;11.046;2023-02-28T09:13:42;12.68;;;6.80;;
42124;SDS011;27787;44.594;11.046;2023-02-28T09:16:27;16.50;;;7.15;;
42124;SDS011;27787;44.594;11.046;2023-02-28T09:19:12;12.20;;;6.78;;
42124;SDS011;27787;44.594;11.046;2023-02-28T09:21:57;13.65;;;6.93;;
42124;SDS011;27787;44.594;11.046;2023-02-28T09:24:41;14.65;;;7.10;;
42124;SDS011;27787;44.594;11.046;2023-02-28T09:27:25;17.90;;;7.45;;
42124;SDS011;27787;44.594;11.046;2023-02-28T09:30:09;12.23;;;6.13;;
42124;SDS011;27787;44.594;11.046;2023-02-28T09:32:54;16.88;;;6.95;;
42124;SDS011;27787;44.594;11.046;2023-02-28T09:35:38;13.50;;;7.07;;
42124;SDS011;27787;44.594;11.046;2023-02-28T09:38:23;16.33;;;7.53;;
42124;SDS011;27787;44.594;11.046;2023-02-28T09:41:21;12.30;;;6.60;;
42124;SDS011;27787;44.594;11.046;2023-02-28T09:44:12;15.85;;;6.95;;
42124;SDS011;27787;44.594;11.046;2023-02-28T09:49:58;13.60;;;7.68;;
42124;SDS011;27787;44.594;11.046;2023-02-28T09:52:51;14.88;;;7.05;;
42124;SDS011;27787;44.594;11.046;2023-02-28T09:55:39;13.73;;;7.57;;
42124;SDS011;27787;44.594;11.046;2023-02-28T10:10:57;14.15;;;7.68;;
42124;SDS011;27787;44.594;11.046;2023-02-28T10:14:00;17.05;;;7.45;;
42124;SDS011;27787;44.594;11.046;2023-02-28T10:16:55;15.18;;;7.10;;
42124;SDS011;27787;44.594;11.046;2023-02-28T10:22:36;14.23;;;6.57;;
42124;SDS011;27787;44.594;11.046;2023-02-28T10:25:25;14.38;;;7.32;;
42124;SDS011;27787;44.594;11.046;2023-02-28T10:28:12;16.17;;;6.95;;
42124;SDS011;27787;44.594;11.046;2023-02-28T10:30:58;14.70;;;7.45;;
42124;SDS011;27787;44.594;11.046;2023-02-28T10:33:44;13.73;;;6.45;;
42124;SDS011;27787;44.594;11.046;2023-02-28T10:36:29;15.43;;;8.20;;
42124;SDS011;27787;44.594;11.046;2023-02-28T10:39:36;13.05;;;7.13;;
42124;SDS011;27787;44.594;11.046;2023-02-28T10:42:24;14.00;;;6.97;;
42124;SDS011;27787;44.594;11.046;2023-02-28T10:47:59;12.75;;;7.00;;
42124;SDS011;27787;44.594;11.046;2023-02-28T10:53:31;19.23;;;7.70;;
42124;SDS011;27787;44.594;11.046;2023-02-28T10:56:19;17.55;;;7.95;;
42124;SDS011;27787;44.594;11.046;2023-02-28T11:01:59;25.38;;;11.07;;
42124;SDS011;27787;44.594;11.046;2023-02-28T11:04:43;18.17;;;8.27;;
42124;SDS011;27787;44.594;11.046;2023-02-28T11:07:27;16.75;;;8.02;;
42124;SDS011;27787;44.594;11.046;2023-02-28T11:10:16;19.92;;;10.52;;
42124;SDS011;27787;44.594;11.046;2023-02-28T11:13:04;15.07;;;8.30;;
42124;SDS011;27787;44.594;11.046;2023-02-28T11:15:53;17.30;;;9.10;;
42124;SDS011;27787;44.594;11.046;2023-02-28T11:18:42;12.73;;;6.85;;
42124;SDS011;27787;44.594;11.046;2023-02-28T11:21:34;13.48;;;7.40;;
42124;SDS011;27787;44.594;11.046;2023-02-28T11:24:35;15.25;;;7.90;;
42124;SDS011;27787;44.594;11.046;2023-02-28T11:30:25;19.65;;;7.63;;
42124;SDS011;27787;44.594;11.046;2023-02-28T11:33:21;18.13;;;8.00;;
42124;SDS011;27787;44.594;11.046;2023-02-28T11:36:28;15.35;;;7.57;;
42124;SDS011;27787;44.594;11.046;2023-02-28T11:39:14;18.48;;;7.28;;
42124;SDS011;27787;44.594;11.046;2023-02-28T11:45:02;13.50;;;6.95;;
42124;SDS011;27787;44.594;11.046;2023-02-28T11:48:12;17.50;;;7.20;;
42124;SDS011;27787;44.594;11.046;2023-02-28T11:54:32;15.70;;;6.65;;
42124;SDS011;27787;44.594;11.046;2023-02-28T12:12:33;14.68;;;7.45;;
42124;SDS011;27787;44.594;11.046;2023-02-28T12:21:40;13.23;;;6.07;;
42124;SDS011;27787;44.594;11.046;2023-02-28T12:27:40;13.63;;;7.40;;
42124;SDS011;27787;44.594;11.046;2023-02-28T12:30:28;16.08;;;7.35;;
42124;SDS011;27787;44.594;11.046;2023-02-28T12:33:16;12.75;;;6.63;;
42124;SDS011;27787;44.594;11.046;2023-02-28T12:36:05;15.43;;;7.28;;
42124;SDS011;27787;44.594;11.046;2023-02-28T12:39:02;14.63;;;7.97;;
42124;SDS011;27787;44.594;11.046;2023-02-28T12:41:56;22.70;;;9.20;;
42124;SDS011;27787;44.594;11.046;2023-02-28T12:44:49;15.75;;;8.07;;
42124;SDS011;27787;44.594;11.046;2023-02-28T12:47:42;23.20;;;8.95;;
42124;SDS011;27787;44.594;11.046;2023-02-28T12:50:28;18.10;;;8.82;;
42124;SDS011;27787;44.594;11.046;2023-02-28T12:53:18;18.35;;;8.80;;
42124;SDS011;27787;44.594;11.046;2023-02-28T12:56:17;19.92;;;9.50;;
42124;SDS011;27787;44.594;11.046;2023-02-28T13:11:47;15.20;;;8.52;;
42124;SDS011;27787;44.594;11.046;2023-02-28T13:14:36;16.05;;;8.90;;
42124;SDS011;27787;44.594;11.046;2023-02-28T13:20:17;20.83;;;9.18;;
42124;SDS011;27787;44.594;11.046;2023-02-28T13:38:09;21.25;;;9.32;;
42124;SDS011;27787;44.594;11.046;2023-02-28T13:41:33;16.80;;;8.80;;
42124;SDS011;27787;44.594;11.046;2023-02-28T13:44:16;16.67;;;8.88;;
42124;SDS011;27787;44.594;11.046;2023-02-28T13:49:47;19.67;;;9.57;;
42124;SDS011;27787;44.594;11.046;2023-02-28T13:52:31;17.77;;;8.85;;
42124;SDS011;27787;44.594;11.046;2023-02-28T13:58:53;17.83;;;9.15;;
42124;SDS011;27787;44.594;11.046;2023-02-28T14:07:41;17.35;;;9.13;;
42124;SDS011;27787;44.594;11.046;2023-02-28T14:10:31;17.30;;;8.75;;
42124;SDS011;27787;44.594;11.046;2023-02-28T14:13:45;17.35;;;9.32;;
42124;SDS011;27787;44.594;11.046;2023-02-28T14:19:27;21.80;;;9.93;;
42124;SDS011;27787;44.594;11.046;2023-02-28T14:41:30;15.63;;;9.25;;
42124;SDS011;27787;44.594;11.046;2023-02-28T14:44:23;18.88;;;10.25;;
42124;SDS011;27787;44.594;11.046;2023-02-28T14:47:13;22.30;;;10.60;;
42124;SDS011;27787;44.594;11.046;2023-02-28T14:49:59;19.65;;;11.15;;
42124;SDS011;27787;44.594;11.046;2023-02-28T14:52:46;23.77;;;11.90;;
42124;SDS011;27787;44.594;11.046;2023-02-28T14:55:31;26.27;;;11.52;;
42124;SDS011;27787;44.594;11.046;2023-02-28T14:58:25;21.02;;;11.23;;
42124;SDS011;27787;44.594;11.046;2023-02-28T15:01:11;25.58;;;12.05;;
42124;SDS011;27787;44.594;11.046;2023-02-28T15:03:57;21.60;;;11.98;;
42124;SDS011;27787;44.594;11.046;2023-02-28T15:06:43;25.38;;;10.98;;
42124;SDS011;27787;44.594;11.046;2023-02-28T15:09:27;23.40;;;11.98;;
42124;SDS011;27787;44.594;11.046;2023-02-28T15:12:15;26.00;;;12.25;;
42124;SDS011;27787;44.594;11.046;2023-02-28T15:14:59;24.58;;;11.95;;
42124;SDS011;27787;44.594;11.046;2023-02-28T15:17:45;29.17;;;13.20;;
42124;SDS011;27787;44.594;11.046;2023-02-28T15:20:33;22.67;;;12.30;;
42124;SDS011;27787;44.594;11.046;2023-02-28T15:26:24;27.10;;;13.27;;
42124;SDS011;27787;44.594;11.046;2023-02-28T15:29:14;26.75;;;13.60;;
42124;SDS011;27787;44.594;11.046;2023-02-28T15:32:02;24.15;;;12.43;;
42124;SDS011;27787;44.594;11.046;2023-02-28T15:34:49;26.63;;;13.18;;
42124;SDS011;27787;44.594;11.046;2023-02-28T15:37:37;26.92;;;12.20;;
42124;SDS011;27787;44.594;11.046;2023-02-28T15:43:32;25.35;;;12.73;;
42124;SDS011;27787;44.594;11.046;2023-02-28T15:46:17;30.60;;;13.05;;
42124;SDS011;27787;44.594;11.046;2023-02-28T15:49:03;22.48;;;12.57;;
42124;SDS011;27787;44.594;11.046;2023-02-28T15:51:49;25.08;;;13.25;;
42124;SDS011;27787;44.594;11.046;2023-02-28T15:54:35;25.60;;;12.10;;
42124;SDS011;27787;44.594;11.046;2023-02-28T15:57:23;24.77;;;13.32;;
42124;SDS011;27787;44.594;11.046;2023-02-28T16:00:11;25.67;;;13.90;;
42124;SDS011;27787;44.594;11.046;2023-02-28T16:02:58;28.58;;;13.63;;
42124;SDS011;27787;44.594;11.046;2023-02-28T16:05:43;29.85;;;13.50;;
42124;SDS011;27787;44.594;11.046;2023-02-28T16:08:27;34.95;;;13.35;;
42124;SDS011;27787;44.594;11.046;2023-02-28T16:11:11;26.58;;;14.35;;
42124;SDS011;27787;44.594;11.046;2023-02-28T16:13:55;25.48;;;13.63;;
42124;SDS011;27787;44.594;11.046;2023-02-28T16:16:45;29.00;;;13.43;;
42124;SDS011;27787;44.594;11.046;2023-02-28T16:19:31;26.92;;;13.60;;
42124;SDS011;27787;44.594;11.046;2023-02-28T16:22:16;30.80;;;13.23;;
42124;SDS011;27787;44.594;11.046;2023-02-28T16:25:00;42.22;;;15.15;;
42124;SDS011;27787;44.594;11.046;2023-02-28T16:27:48;30.50;;;15.32;;
42124;SDS011;27787;44.594;11.046;2023-02-28T16:30:35;29.48;;;14.63;;
42124;SDS011;27787;44.594;11.046;2023-02-28T16:33:18;27.75;;;14.60;;
42124;SDS011;27787;44.594;11.046;2023-02-28T16:36:03;33.22;;;14.20;;
42124;SDS011;27787;44.594;11.046;2023-02-28T16:38:47;32.97;;;15.35;;
42124;SDS011;27787;44.594;11.046;2023-02-28T16:41:31;35.05;;;15.18;;
42124;SDS011;27787;44.594;11.046;2023-02-28T16:44:36;33.35;;;14.57;;
42124;SDS011;27787;44.594;11.046;2023-02-28T16:47:20;32.25;;;15.18;;
42124;SDS011;27787;44.594;11.046;2023-02-28T16:50:12;30.27;;;15.17;;
42124;SDS011;27787;44.594;11.046;2023-02-28T16:53:00;31.33;;;14.65;;
42124;SDS011;27787;44.594;11.046;2023-02-28T16:55:45;33.60;;;15.02;;
42124;SDS011;27787;44.594;11.046;2023-02-28T16:58:29;33.45;;;15.40;;
42124;SDS011;27787;44.594;11.046;2023-02-28T17:01:14;29.92;;;15.35;;
42124;SDS011;27787;44.594;11.046;2023-02-28T17:03:58;35.80;;;15.02;;
42124;SDS011;27787;44.594;11.046;2023-02-28T17:06:43;32.10;;;14.93;;
42124;SDS011;27787;44.594;11.046;2023-02-28T17:09:27;34.20;;;15.77;;
42124;SDS011;27787;44.594;11.046;2023-02-28T17:12:11;32.78;;;15.73;;
42124;SDS011;27787;44.594;11.046;2023-02-28T17:14:56;28.48;;;14.80;;
42124;SDS011;27787;44.594;11.046;2023-02-28T17:17:41;29.35;;;15.27;;
42124;SDS011;27787;44.594;11.046;2023-02-28T17:20:27;30.63;;;14.95;;
42124;SDS011;27787;44.594;11.046;2023-02-28T17:23:12;31.25;;;14.90;;
42124;SDS011;27787;44.594;11.046;2023-02-28T17:25:56;29.98;;;14.15;;
42124;SDS011;27787;44.594;11.046;2023-02-28T17:28:40;31.70;;;15.65;;
42124;SDS011;27787;44.594;11.046;2023-02-28T17:31:25;32.00;;;16.67;;
42124;SDS011;27787;44.594;11.046;2023-02-28T17:34:10;31.08;;;15.63;;
42124;SDS011;27787;44.594;11.046;2023-02-28T17:36:55;35.50;;;17.45;;
42124;SDS011;27787;44.594;11.046;2023-02-28T17:39:55;33.20;;;15.73;;
42124;SDS011;27787;44.594;11.046;2023-02-28T17:42:44;34.45;;;16.58;;
42124;SDS011;27787;44.594;11.046;2023-02-28T17:45:28;35.63;;;17.02;;
42124;SDS011;27787;44.594;11.046;2023-02-28T17:48:13;38.33;;;17.95;;
42124;SDS011;27787;44.594;11.046;2023-02-28T17:50:57;32.83;;;16.60;;
42124;SDS011;27787;44.594;11.046;2023-02-28T17:53:41;38.05;;;17.67;;
42124;SDS011;27787;44.594;11.046;2023-02-28T17:56:25;36.25;;;16.52;;
42124;SDS011;27787;44.594;11.046;2023-02-28T17:59:10;34.40;;;16.58;;
42124;SDS011;27787;44.594;11.046;2023-02-28T18:01:55;35.75;;;18.55;;
42124;SDS011;27787;44.594;11.046;2023-02-28T18:04:39;33.03;;;16.88;;
42124;SDS011;27787;44.594;11.046;2023-02-28T18:07:24;32.83;;;16.77;;
42124;SDS011;27787;44.594;11.046;2023-02-28T18:10:19;34.22;;;15.30;;
42124;SDS011;27787;44.594;11.046;2023-02-28T18:13:04;36.28;;;18.00;;
42124;SDS011;27787;44.594;11.046;2023-02-28T18:15:49;36.35;;;17.85;;
42124;SDS011;27787;44.594;11.046;2023-02-28T18:18:33;35.35;;;16.58;;
42124;SDS011;27787;44.594;11.046;2023-02-28T18:21:21;38.28;;;17.25;;
42124;SDS011;27787;44.594;11.046;2023-02-28T18:24:04;33.13;;;17.17;;
42124;SDS011;27787;44.594;11.046;2023-02-28T18:26:49;36.78;;;18.30;;
42124;SDS011;27787;44.594;11.046;2023-02-28T18:29:34;33.63;;;16.07;;
42124;SDS011;27787;44.594;11.046;2023-02-28T18:32:20;31.33;;;16.13;;
42124;SDS011;27787;44.594;11.046;2023-02-28T18:35:04;35.03;;;16.95;;
42124;SDS011;27787;44.594;11.046;2023-02-28T18:37:48;28.95;;;15.45;;
42124;SDS011;27787;44.594;11.046;2023-02-28T18:40:32;35.95;;;16.33;;
42124;SDS011;27787;44.594;11.046;2023-02-28T18:43:16;31.10;;;15.45;;
42124;SDS011;27787;44.594;11.046;2023-02-28T18:46:04;30.88;;;15.63;;
42124;SDS011;27787;44.594;11.046;2023-02-28T18:48:50;34.05;;;15.98;;
42124;SDS011;27787;44.594;11.046;2023-02-28T18:51:34;32.50;;;15.85;;
42124;SDS011;27787;44.594;11.046;2023-02-28T18:57:04;38.70;;;17.10;;
42124;SDS011;27787;44.594;11.046;2023-02-28T18:59:48;37.55;;;18.70;;
42124;SDS011;27787;44.594;11.046;2023-02-28T19:02:32;47.72;;;21.65;;
42124;SDS011;27787;44.594;11.046;2023-02-28T19:05:17;43.95;;;19.35;;
42124;SDS011;27787;44.594;11.046;2023-02-28T19:08:02;36.25;;;18.23;;
42124;SDS011;27787;44.594;11.046;2023-02-28T19:10:47;44.53;;;19.40;;
42124;SDS011;27787;44.594;11.046;2023-02-28T19:13:31;37.53;;;17.75;;
42124;SDS011;27787;44.594;11.046;2023-02-28T19:16:16;35.90;;;17.63;;
42124;SDS011;27787;44.594;11.046;2023-02-28T19:19:02;38.28;;;18.13;;
42124;SDS011;27787;44.594;11.046;2023-02-28T19:21:46;40.00;;;18.88;;
42124;SDS011;27787;44.594;11.046;2023-02-28T19:24:31;37.60;;;19.75;;
42124;SDS011;27787;44.594;11.046;2023-02-28T19:27:15;46.88;;;20.63;;